createdAt,value
2022-11-12T00:00:47.853Z,16.40
2022-11-12T00:03:19.793Z,15.70
2022-11-12T00:05:51.686Z,16.50
2022-11-12T00:08:26.604Z,16.00
2022-11-12T00:10:58.618Z,15.20
2022-11-12T00:13:30.342Z,15.80
2022-11-12T00:16:02.450Z,14.50
2022-11-12T00:18:34.374Z,15.80
2022-11-12T00:21:06.286Z,17.00
2022-11-12T00:23:38.093Z,15.60
2022-11-12T00:26:11.141Z,15.30
2022-11-12T00:28:43.039Z,16.40
2022-11-12T00:31:14.920Z,18.30
2022-11-12T00:33:49.080Z,16.40
2022-11-12T00:36:21.131Z,16.80
2022-11-12T00:38:55.643Z,16.10
2022-11-12T00:41:29.514Z,16.30
2022-11-12T00:44:01.434Z,14.90
2022-11-12T00:46:35.716Z,14.40
2022-11-12T00:49:07.467Z,15.60
2022-11-12T00:51:44.760Z,15.60
2022-11-12T00:54:16.827Z,12.90
2022-11-12T00:56:50.212Z,14.30
2022-11-12T00:59:24.496Z,14.10
2022-11-12T01:01:56.419Z,14.80
2022-11-12T01:04:28.304Z,13.90
2022-11-12T01:07:00.148Z,13.60
2022-11-12T01:09:31.969Z,13.80
2022-11-12T01:12:04.013Z,13.00
2022-11-12T01:14:36.979Z,12.30
2022-11-12T01:17:08.726Z,12.00
2022-11-12T01:19:40.324Z,13.30
2022-11-12T01:22:13.302Z,14.70
2022-11-12T01:24:45.051Z,13.90
2022-11-12T01:27:16.796Z,12.10
2022-11-12T01:29:48.587Z,12.00
2022-11-12T01:32:20.311Z,11.90
2022-11-12T01:34:53.395Z,11.00
2022-11-12T01:37:25.119Z,11.70
2022-11-12T01:39:57.383Z,10.70
2022-11-12T01:42:32.803Z,10.30
2022-11-12T01:45:11.872Z,9.40
2022-11-12T01:47:44.056Z,9.70
2022-11-12T01:50:28.293Z,9.80
2022-11-12T01:53:04.249Z,9.60
2022-11-12T01:55:39.177Z,10.20
2022-11-12T01:58:13.359Z,8.70
2022-11-12T02:00:46.326Z,9.80
2022-11-12T02:03:23.110Z,9.80
2022-11-12T02:05:59.454Z,9.30
2022-11-12T02:08:32.193Z,8.30
2022-11-12T02:11:15.070Z,8.20
2022-11-12T02:14:02.312Z,8.80
2022-11-12T02:16:37.676Z,9.50
2022-11-12T02:19:14.521Z,9.00
2022-11-12T02:21:46.717Z,9.10
2022-11-12T02:24:37.009Z,9.40
2022-11-12T02:27:09.478Z,9.40
2022-11-12T02:29:46.473Z,9.80
2022-11-12T02:32:18.438Z,10.30
2022-11-12T02:34:50.196Z,10.00
2022-11-12T02:37:21.819Z,9.80
2022-11-12T02:39:53.534Z,10.30
2022-11-12T02:42:25.295Z,10.30
2022-11-12T02:44:57.052Z,11.20
2022-11-12T02:47:28.862Z,10.80
2022-11-12T02:50:00.508Z,10.90
2022-11-12T02:52:32.462Z,11.60
2022-11-12T02:55:04.245Z,12.50
2022-11-12T02:57:35.916Z,15.60
2022-11-12T03:00:12.281Z,15.60
2022-11-12T03:02:58.989Z,15.60
2022-11-12T03:05:33.071Z,14.00
2022-11-12T03:08:07.210Z,13.90
2022-11-12T03:10:40.986Z,14.10
2022-11-12T03:13:12.636Z,14.60
2022-11-12T03:15:44.297Z,15.90
2022-11-12T03:18:16.057Z,15.30
2022-11-12T03:20:47.811Z,15.40
2022-11-12T03:23:19.442Z,15.10
2022-11-12T03:25:51.158Z,14.60
2022-11-12T03:28:23.061Z,14.70
2022-11-12T03:30:57.948Z,15.00
2022-11-12T03:33:29.636Z,14.00
2022-11-12T03:36:01.444Z,16.00
2022-11-12T03:38:33.312Z,17.20
2022-11-12T03:41:05.186Z,16.90
2022-11-12T03:43:36.926Z,13.90
2022-11-12T03:46:08.733Z,13.60
2022-11-12T03:48:40.714Z,13.90
2022-11-12T03:51:16.460Z,15.90
2022-11-12T03:53:48.332Z,16.60
2022-11-12T03:56:20.038Z,16.20
2022-11-12T03:58:51.696Z,15.90
2022-11-12T04:01:23.425Z,14.60
2022-11-12T04:03:55.063Z,15.20
2022-11-12T04:06:44.763Z,14.70
2022-11-12T04:09:16.732Z,15.00
2022-11-12T04:11:48.365Z,15.00
2022-11-12T04:14:21.219Z,15.30
2022-11-12T04:17:14.705Z,14.80
2022-11-12T04:20:04.169Z,14.20
2022-11-12T04:22:40.741Z,16.20
2022-11-12T04:25:29.736Z,15.30
2022-11-12T04:28:01.420Z,14.90
2022-11-12T04:30:33.038Z,14.70
2022-11-12T04:33:05.051Z,16.20
2022-11-12T04:35:36.697Z,15.10
2022-11-12T04:38:08.415Z,16.30
2022-11-12T04:40:57.423Z,16.00
2022-11-12T04:43:46.872Z,18.50
2022-11-12T04:46:18.592Z,20.20
2022-11-12T04:48:50.519Z,20.50
2022-11-12T04:51:39.994Z,19.70
2022-11-12T04:54:11.694Z,20.20
2022-11-12T04:56:43.331Z,20.30
2022-11-12T04:59:15.012Z,22.80
2022-11-12T05:01:46.788Z,21.60
2022-11-12T05:04:22.057Z,21.80
2022-11-12T05:06:53.969Z,22.10
2022-11-12T05:09:28.059Z,23.00
2022-11-12T05:12:00.389Z,22.20
2022-11-12T05:14:35.235Z,22.80
2022-11-12T05:17:07.311Z,35.00
2022-11-12T05:19:38.991Z,45.20
2022-11-12T05:22:27.406Z,39.30
2022-11-12T05:25:05.422Z,38.50
2022-11-12T05:27:37.606Z,37.50
2022-11-12T05:30:12.960Z,38.90
2022-11-12T05:32:44.605Z,39.10
2022-11-12T05:35:16.448Z,38.50
2022-11-12T05:37:48.285Z,37.60
2022-11-12T05:40:26.524Z,37.00
2022-11-12T05:42:58.201Z,34.00
2022-11-12T05:45:29.841Z,32.00
2022-11-12T05:48:01.510Z,32.20
2022-11-12T05:50:39.761Z,31.20
2022-11-12T05:53:23.260Z,30.20
2022-11-12T05:55:54.956Z,28.00
2022-11-12T05:58:26.704Z,27.90
2022-11-12T06:00:58.632Z,26.00
2022-11-12T06:03:32.018Z,22.00
2022-11-12T06:06:03.683Z,24.30
2022-11-12T06:08:35.528Z,22.20
2022-11-12T06:11:07.490Z,23.70
2022-11-12T06:13:39.194Z,22.90
2022-11-12T06:16:11.113Z,23.50
2022-11-12T06:18:42.752Z,21.60
2022-11-12T06:21:23.537Z,21.90
2022-11-12T06:23:56.834Z,21.90
2022-11-12T06:26:30.772Z,22.80
2022-11-12T06:29:05.514Z,20.90
2022-11-12T06:31:37.222Z,22.00
2022-11-12T06:34:08.950Z,23.00
2022-11-12T06:36:40.658Z,21.90
2022-11-12T06:39:13.326Z,20.70
2022-11-12T06:41:44.996Z,21.40
2022-11-12T06:44:21.804Z,20.80
2022-11-12T06:46:53.993Z,19.60
2022-11-12T06:49:25.654Z,18.70
2022-11-12T06:51:57.392Z,19.00
2022-11-12T06:54:29.187Z,18.20
2022-11-12T06:57:01.302Z,18.00
2022-11-12T06:59:32.916Z,18.30
2022-11-12T07:02:05.807Z,19.00
2022-11-12T07:04:37.552Z,17.60
2022-11-12T07:07:10.830Z,16.70
2022-11-12T07:09:42.919Z,16.10
2022-11-12T07:12:14.645Z,17.00
2022-11-12T07:14:46.823Z,17.30
2022-11-12T07:17:18.539Z,15.10
2022-11-12T07:19:50.183Z,16.90
2022-11-12T07:22:21.937Z,16.60
2022-11-12T07:24:53.665Z,17.20
2022-11-12T07:27:25.486Z,17.90
2022-11-12T07:29:59.628Z,17.40
2022-11-12T07:32:31.345Z,16.70
2022-11-12T07:35:03.103Z,16.60
2022-11-12T07:37:37.409Z,14.60
2022-11-12T07:40:13.519Z,15.60
2022-11-12T07:42:45.213Z,14.20
2022-11-12T07:45:16.926Z,13.70
2022-11-12T07:47:57.008Z,13.50
2022-11-12T07:50:28.764Z,12.70
2022-11-12T07:53:02.423Z,13.00
2022-11-12T07:55:37.351Z,12.00
2022-11-12T07:58:09.083Z,12.20
2022-11-12T08:00:40.781Z,12.20
2022-11-12T08:03:12.512Z,11.90
2022-11-12T08:05:44.578Z,11.30
2022-11-12T08:08:16.392Z,11.00
2022-11-12T08:10:48.025Z,12.20
2022-11-12T08:14:06.760Z,10.10
2022-11-12T08:16:38.467Z,11.30
2022-11-12T08:19:12.495Z,10.30
2022-11-12T08:21:44.740Z,11.50
2022-11-12T08:24:16.433Z,10.70
2022-11-12T08:26:50.106Z,10.10
2022-11-12T08:29:24.111Z,10.60
2022-11-12T08:31:57.332Z,9.80
2022-11-12T08:34:31.663Z,11.40
2022-11-12T08:37:03.292Z,10.00
2022-11-12T08:39:34.947Z,10.50
2022-11-12T08:42:06.937Z,8.70
2022-11-12T08:44:38.671Z,9.30
2022-11-12T08:47:10.594Z,9.10
2022-11-12T08:49:46.805Z,9.60
2022-11-12T08:52:19.866Z,10.10
2022-11-12T08:54:51.548Z,9.60
2022-11-12T08:57:23.255Z,8.50
2022-11-12T08:59:54.913Z,8.70
2022-11-12T09:02:26.477Z,14.80
2022-11-12T09:04:58.168Z,12.70
2022-11-12T09:07:48.638Z,12.10
2022-11-12T09:10:24.983Z,11.50
2022-11-12T09:12:57.035Z,9.70
2022-11-12T09:15:38.258Z,9.20
2022-11-12T09:18:12.407Z,9.10
2022-11-12T09:20:44.734Z,8.90
2022-11-12T09:23:21.067Z,8.80
2022-11-12T09:25:52.749Z,9.20
2022-11-12T09:28:25.014Z,10.80
2022-11-12T09:30:58.294Z,9.70
2022-11-12T09:33:31.599Z,10.00
2022-11-12T09:36:05.025Z,11.50
2022-11-12T09:38:38.858Z,11.90
2022-11-12T09:41:25.067Z,10.90
2022-11-12T09:44:02.135Z,11.20
2022-11-12T09:46:41.420Z,12.50
2022-11-12T09:49:18.441Z,11.60
2022-11-12T09:51:55.058Z,13.00
2022-11-12T09:54:29.121Z,10.10
2022-11-12T09:57:01.023Z,10.50
2022-11-12T09:59:35.658Z,11.30
2022-11-12T10:02:24.619Z,10.50
2022-11-12T10:05:04.352Z,14.40
2022-11-12T10:07:47.228Z,16.00
2022-11-12T10:10:25.496Z,18.80
2022-11-12T10:13:12.100Z,12.70
2022-11-12T10:16:17.769Z,11.50
2022-11-12T10:19:04.382Z,13.70
2022-11-12T10:21:42.597Z,12.90
2022-11-12T10:24:14.433Z,9.80
2022-11-12T10:26:47.149Z,10.20
2022-11-12T10:29:28.457Z,11.90
2022-11-12T10:32:01.927Z,10.00
2022-11-12T10:34:34.282Z,9.50
2022-11-12T10:37:08.819Z,11.80
2022-11-12T10:39:44.195Z,11.50
2022-11-12T10:42:17.825Z,8.60
2022-11-12T10:44:50.111Z,8.90
2022-11-12T10:47:28.904Z,9.50
2022-11-12T10:50:21.628Z,8.20
2022-11-12T10:53:05.322Z,9.00
2022-11-12T10:55:39.006Z,7.90
2022-11-12T10:58:19.819Z,7.10
2022-11-12T11:01:03.922Z,7.50
2022-11-12T11:03:38.383Z,8.40
2022-11-12T11:06:23.201Z,7.70
2022-11-12T11:09:08.955Z,7.70
2022-11-12T11:11:49.139Z,7.40
2022-11-12T11:14:36.112Z,8.60
2022-11-12T11:17:16.783Z,9.10
2022-11-12T11:19:48.412Z,8.00
2022-11-12T11:22:36.588Z,10.00
2022-11-12T11:25:27.845Z,8.80
2022-11-12T11:28:06.786Z,8.70
2022-11-12T11:30:47.638Z,8.40
2022-11-12T11:33:29.705Z,9.10
2022-11-12T11:36:16.829Z,9.20
2022-11-12T11:39:01.001Z,9.30
2022-11-12T11:42:02.565Z,9.70
2022-11-12T11:44:43.070Z,9.50
2022-11-12T11:47:50.441Z,10.90
2022-11-12T11:50:37.300Z,12.20
2022-11-12T11:53:23.284Z,10.00
2022-11-12T11:56:02.927Z,9.40
2022-11-12T11:59:14.931Z,8.50
2022-11-12T12:02:02.283Z,9.00
2022-11-12T12:04:46.816Z,8.70
2022-11-12T12:07:28.602Z,7.50
2022-11-12T12:10:16.881Z,7.50
2022-11-12T12:13:01.667Z,7.30
2022-11-12T12:18:29.420Z,8.00
2022-11-12T12:21:09.841Z,7.80
2022-11-12T12:23:48.725Z,8.00
2022-11-12T12:26:25.149Z,8.30
2022-11-12T12:29:03.339Z,8.90
2022-11-12T12:31:41.279Z,8.30
2022-11-12T12:34:21.292Z,9.90
2022-11-12T12:37:03.121Z,8.90
2022-11-12T12:39:48.140Z,9.10
2022-11-12T12:42:24.004Z,9.30
2022-11-12T12:45:08.121Z,8.40
2022-11-12T12:47:44.336Z,8.60
2022-11-12T12:50:20.728Z,8.80
2022-11-12T12:53:17.138Z,8.00
2022-11-12T12:55:50.255Z,7.90
2022-11-12T12:58:30.356Z,8.10
2022-11-12T13:01:06.445Z,9.30
2022-11-12T13:04:02.390Z,10.10
2022-11-12T13:06:42.616Z,10.50
2022-11-12T13:09:26.460Z,12.00
2022-11-12T13:12:16.332Z,11.00
2022-11-12T13:14:57.098Z,10.30
2022-11-12T13:17:50.386Z,9.20
2022-11-12T13:20:40.146Z,11.40
2022-11-12T13:23:54.399Z,9.80
2022-11-12T13:26:48.003Z,8.70
2022-11-12T13:29:40.752Z,10.30
2022-11-12T13:32:32.379Z,11.10
2022-11-12T13:35:35.759Z,10.60
2022-11-12T13:38:15.913Z,11.20
2022-11-12T13:40:52.403Z,12.00
2022-11-12T13:43:32.606Z,12.60
2022-11-12T13:46:27.625Z,13.40
2022-11-12T13:49:03.381Z,13.30
2022-11-12T13:51:43.064Z,13.90
2022-11-12T13:54:34.482Z,14.10
2022-11-12T13:57:33.087Z,14.10
2022-11-12T14:00:25.383Z,14.40
2022-11-12T14:03:01.391Z,15.90
2022-11-12T14:05:34.889Z,15.40
2022-11-12T14:08:22.458Z,16.00
2022-11-12T14:11:08.248Z,18.90
2022-11-12T14:13:58.246Z,16.50
2022-11-12T14:16:39.289Z,16.50
2022-11-12T14:22:03.105Z,14.30
2022-11-12T14:24:37.451Z,14.60
2022-11-12T14:27:24.433Z,14.70
2022-11-12T14:30:14.586Z,14.00
2022-11-12T14:32:49.057Z,14.80
2022-11-12T14:35:34.422Z,14.80
2022-11-12T14:38:17.918Z,15.40
2022-11-12T14:40:58.258Z,13.90
2022-11-12T14:43:36.595Z,15.50
2022-11-12T14:46:09.871Z,15.00
2022-11-12T14:48:50.227Z,15.40
2022-11-12T14:51:25.356Z,15.10
2022-11-12T14:54:00.218Z,15.70
2022-11-12T14:56:36.004Z,14.80
2022-11-12T14:59:08.511Z,17.00
2022-11-12T15:02:21.739Z,15.90
2022-11-12T15:04:42.302Z,16.70
2022-11-12T15:07:28.740Z,17.00
2022-11-12T15:10:00.866Z,20.40
2022-11-12T15:12:36.570Z,23.50
2022-11-12T15:15:26.685Z,30.20
2022-11-12T15:23:02.715Z,35.10
2022-11-12T15:25:34.889Z,39.90
2022-11-12T15:28:22.646Z,38.80
2022-11-12T15:31:07.590Z,39.90
2022-11-12T15:33:39.305Z,41.90
2022-11-12T15:36:20.362Z,40.60
2022-11-12T15:38:54.677Z,41.30
2022-11-12T15:41:29.535Z,43.70
2022-11-12T15:44:01.563Z,38.10
2022-11-12T15:46:34.074Z,36.20
2022-11-12T15:49:12.106Z,36.50
2022-11-12T15:51:45.992Z,37.10
2022-11-12T15:54:20.292Z,39.80
2022-11-12T15:56:52.517Z,41.90
2022-11-12T15:59:24.398Z,43.70
2022-11-12T16:01:56.862Z,43.50
2022-11-12T16:04:28.748Z,45.90
2022-11-12T16:07:00.655Z,47.50
2022-11-12T16:09:32.360Z,45.00
2022-11-12T16:12:04.960Z,37.80
2022-11-12T16:14:36.702Z,33.90
2022-11-12T16:17:11.868Z,32.70
2022-11-12T16:19:43.525Z,30.60
2022-11-12T16:22:15.151Z,29.40
2022-11-12T16:24:46.794Z,27.30
2022-11-12T16:27:23.016Z,27.40
2022-11-12T16:29:54.801Z,26.60
2022-11-12T16:32:26.599Z,26.70
2022-11-12T16:35:01.070Z,26.10
2022-11-12T16:37:33.535Z,23.40
2022-11-12T16:40:13.614Z,22.50
2022-11-12T16:42:53.191Z,23.30
2022-11-12T16:45:29.070Z,21.00
2022-11-12T16:48:00.900Z,18.20
2022-11-12T16:50:32.728Z,16.80
2022-11-12T16:53:04.486Z,18.00
2022-11-12T16:55:36.292Z,17.10
2022-11-12T16:58:08.065Z,17.40
2022-11-12T17:00:52.702Z,17.80
2022-11-12T17:03:24.585Z,16.60
2022-11-12T17:05:57.767Z,16.60
2022-11-12T17:08:33.684Z,17.00
2022-11-12T17:11:12.130Z,18.10
2022-11-12T17:13:44.786Z,20.10
2022-11-12T17:16:16.599Z,20.70
2022-11-12T17:18:48.276Z,19.40
2022-11-12T17:21:21.008Z,19.20
2022-11-12T17:23:53.041Z,18.10
2022-11-12T17:26:25.298Z,16.60
2022-11-12T17:29:02.223Z,17.20
2022-11-12T17:31:36.959Z,18.50
2022-11-12T17:34:08.651Z,18.70
2022-11-12T17:36:43.587Z,18.80
2022-11-12T17:39:16.272Z,18.10
2022-11-12T17:41:48.042Z,22.00
2022-11-12T17:44:20.898Z,23.10
2022-11-12T17:46:52.712Z,25.00
2022-11-12T17:49:24.389Z,24.60
2022-11-12T17:51:56.238Z,26.10
2022-11-12T17:54:28.608Z,27.90
2022-11-12T17:57:00.562Z,26.10
2022-11-12T17:59:32.268Z,25.80
2022-11-12T18:02:03.883Z,29.00
2022-11-12T18:04:35.677Z,30.60
2022-11-12T18:07:07.419Z,31.50
2022-11-12T18:09:39.035Z,30.90
2022-11-12T18:12:11.022Z,31.30
2022-11-12T18:14:42.751Z,32.10
2022-11-12T18:17:14.689Z,33.20
2022-11-12T18:19:46.327Z,34.50
2022-11-12T18:22:19.604Z,32.10
2022-11-12T18:24:52.905Z,35.80
2022-11-12T18:27:24.733Z,36.40
2022-11-12T18:29:56.524Z,61.50
2022-11-12T18:32:28.228Z,74.70
2022-11-12T18:35:00.062Z,90.50
2022-11-12T18:37:36.408Z,57.80
2022-11-12T18:40:36.961Z,53.40
2022-11-12T18:43:09.064Z,48.70
2022-11-12T18:45:42.247Z,55.90
2022-11-12T18:48:13.982Z,56.20
2022-11-12T18:50:56.397Z,53.40
2022-11-12T18:53:36.642Z,52.90
2022-11-12T18:56:11.679Z,49.10
2022-11-12T18:58:43.625Z,49.10
2022-11-12T19:01:17.251Z,47.90
2022-11-12T19:03:49.642Z,45.30
2022-11-12T19:06:24.436Z,44.40
2022-11-12T19:09:03.464Z,43.40
2022-11-12T19:11:39.942Z,45.00
2022-11-12T19:14:13.646Z,41.10
2022-11-12T19:16:48.527Z,37.40
2022-11-12T19:19:20.440Z,37.70
2022-11-12T19:21:52.184Z,39.10
2022-11-12T19:24:23.878Z,39.40
2022-11-12T19:26:55.862Z,43.40
2022-11-12T19:29:27.589Z,44.80
2022-11-12T19:31:59.242Z,50.10
2022-11-12T19:34:30.966Z,50.40
2022-11-12T19:39:54.339Z,47.90
2022-11-12T19:42:26.374Z,48.50
2022-11-12T19:44:58.120Z,46.70
2022-11-12T19:47:30.313Z,44.40
2022-11-12T19:50:02.096Z,47.20
2022-11-12T19:52:33.718Z,44.70
2022-11-12T19:55:06.504Z,41.80
2022-11-12T19:57:38.127Z,42.30
2022-11-12T20:00:12.882Z,42.10
2022-11-12T20:02:44.561Z,38.50
2022-11-12T20:05:16.745Z,37.20
2022-11-12T20:07:50.837Z,38.30
2022-11-12T20:10:25.163Z,37.10
2022-11-12T20:12:57.029Z,39.70
2022-11-12T20:15:28.709Z,35.00
2022-11-12T20:18:00.402Z,32.60
2022-11-12T20:20:32.368Z,30.40
2022-11-12T20:23:04.152Z,27.20
2022-11-12T20:25:35.801Z,26.30
2022-11-12T20:28:07.728Z,23.60
2022-11-12T20:30:39.883Z,23.40
2022-11-12T20:33:13.443Z,23.00
2022-11-12T20:35:45.530Z,23.30
2022-11-12T20:38:17.213Z,25.60
2022-11-12T20:40:49.007Z,26.00
2022-11-12T20:43:21.620Z,27.10
2022-11-12T20:45:55.880Z,24.80
2022-11-12T20:48:27.998Z,23.60
2022-11-12T20:51:27.621Z,23.00
2022-11-12T20:54:00.921Z,22.10
2022-11-12T20:56:33.108Z,23.00
2022-11-12T20:59:04.763Z,22.40
2022-11-12T21:01:36.474Z,36.20
2022-11-12T21:04:08.280Z,38.20
2022-11-12T21:06:40.353Z,42.10
2022-11-12T21:09:12.102Z,54.40
2022-11-12T21:11:43.777Z,49.50
2022-11-12T21:14:15.760Z,68.70
2022-11-12T21:16:47.499Z,68.50
2022-11-12T21:19:19.201Z,81.30
2022-11-12T21:21:50.968Z,105.80
2022-11-12T21:24:22.768Z,102.40
2022-11-12T21:26:54.386Z,105.50
2022-11-12T21:29:29.072Z,109.30
2022-11-12T21:32:00.728Z,110.50
2022-11-12T21:34:32.841Z,105.50
2022-11-12T21:37:04.627Z,114.30
2022-11-12T21:39:36.292Z,117.20
2022-11-12T21:42:08.060Z,114.00
2022-11-12T21:44:39.768Z,115.30
2022-11-12T21:47:14.090Z,121.80
2022-11-12T21:49:45.817Z,120.50
2022-11-12T21:52:17.631Z,120.70
2022-11-12T21:54:49.259Z,115.20
2022-11-12T21:57:21.056Z,114.30
2022-11-12T21:59:52.872Z,107.60
2022-11-12T22:02:24.582Z,107.00
2022-11-12T22:04:58.622Z,107.40
2022-11-12T22:07:30.577Z,103.90
2022-11-12T22:10:02.414Z,105.20
2022-11-12T22:12:34.410Z,102.10
2022-11-12T22:15:08.415Z,97.00
2022-11-12T22:17:40.163Z,98.40
2022-11-12T22:20:12.937Z,99.60
2022-11-12T22:22:44.603Z,100.50
2022-11-12T22:25:16.541Z,102.10
2022-11-12T22:27:49.537Z,98.70
2022-11-12T22:30:24.697Z,95.40
2022-11-12T22:33:01.818Z,96.50
2022-11-12T22:35:34.031Z,95.10
2022-11-12T22:38:05.699Z,88.00
2022-11-12T22:40:41.199Z,90.60
2022-11-12T22:43:12.976Z,89.40
2022-11-12T22:45:44.625Z,89.90
2022-11-12T22:48:16.623Z,86.50
2022-11-12T22:50:48.535Z,76.70
2022-11-12T22:53:20.303Z,74.10
2022-11-12T22:55:54.647Z,72.50
2022-11-12T22:58:29.683Z,69.30
2022-11-12T23:01:27.553Z,67.10
2022-11-12T23:04:27.276Z,70.00
2022-11-12T23:08:59.954Z,61.30
2022-11-12T23:11:51.928Z,57.30
2022-11-12T23:14:30.538Z,53.50
2022-11-12T23:17:03.116Z,51.20
2022-11-12T23:19:41.924Z,52.60
2022-11-12T23:22:13.611Z,54.00
2022-11-12T23:24:45.264Z,52.70
2022-11-12T23:27:18.336Z,52.90
2022-11-12T23:29:53.581Z,52.00
2022-11-12T23:32:25.293Z,49.70
2022-11-12T23:34:56.924Z,49.50
2022-11-12T23:37:28.632Z,50.80
2022-11-12T23:40:00.276Z,44.00
2022-11-12T23:42:32.045Z,51.10
2022-11-12T23:45:03.724Z,52.40
2022-11-12T23:47:38.604Z,48.60
2022-11-12T23:50:12.283Z,44.90
2022-11-12T23:52:44.023Z,45.40
2022-11-12T23:55:15.991Z,45.10
2022-11-12T23:57:49.557Z,44.50
